createdAt,value
2023-04-25T00:01:58.719Z,57.13
2023-04-25T00:04:26.649Z,58.02
2023-04-25T00:06:55.049Z,57.71
2023-04-25T00:09:21.777Z,58.84
2023-04-25T00:11:48.603Z,58.55
2023-04-25T00:14:15.421Z,58.67
2023-04-25T00:16:42.388Z,58.55
2023-04-25T00:19:10.569Z,58.28
2023-04-25T00:21:41.329Z,58.72
2023-04-25T00:24:08.658Z,58.32
2023-04-25T00:26:36.875Z,57.66
2023-04-25T00:29:03.810Z,58.04
2023-04-25T00:31:31.373Z,57.35
2023-04-25T00:33:58.378Z,57.18
2023-04-25T00:36:25.820Z,56.75
2023-04-25T00:38:54.809Z,56.83
2023-04-25T00:41:21.806Z,56.62
2023-04-25T00:43:51.938Z,56.58
2023-04-25T00:46:18.985Z,56.70
2023-04-25T00:48:45.794Z,55.92
2023-04-25T00:51:17.507Z,55.96
2023-04-25T00:53:46.010Z,55.94
2023-04-25T00:56:13.380Z,55.84
2023-04-25T00:58:44.262Z,56.20
2023-04-25T01:01:12.740Z,56.20
2023-04-25T01:03:44.091Z,56.48
2023-04-25T01:06:11.820Z,56.08
2023-04-25T01:08:39.936Z,55.89
2023-04-25T01:11:07.787Z,55.51
2023-04-25T01:13:35.693Z,56.02
2023-04-25T01:16:03.776Z,56.11
2023-04-25T01:18:30.643Z,55.68
2023-04-25T01:21:07.812Z,55.72
2023-04-25T01:23:35.266Z,55.76
2023-04-25T01:26:02.166Z,55.15
2023-04-25T01:28:29.900Z,55.69
2023-04-25T01:30:57.964Z,55.65
2023-04-25T01:33:25.020Z,55.25
2023-04-25T01:35:52.225Z,55.66
2023-04-25T01:38:20.864Z,55.73
2023-04-25T01:40:50.300Z,55.28
2023-04-25T01:43:19.408Z,55.65
2023-04-25T01:45:46.314Z,56.03
2023-04-25T01:48:14.281Z,56.47
2023-04-25T01:50:41.783Z,57.35
2023-04-25T01:53:10.755Z,57.93
2023-04-25T01:55:37.350Z,58.02
2023-04-25T01:58:13.249Z,59.05
2023-04-25T02:00:58.732Z,60.01
2023-04-25T02:03:32.549Z,61.28
2023-04-25T02:06:00.301Z,61.73
2023-04-25T02:08:27.892Z,61.82
2023-04-25T02:10:56.953Z,63.02
2023-04-25T02:13:24.888Z,63.06
2023-04-25T02:16:04.796Z,63.43
2023-04-25T02:18:32.394Z,63.43
2023-04-25T02:21:02.055Z,63.60
2023-04-25T02:23:29.762Z,64.09
2023-04-25T02:25:58.344Z,64.32
2023-04-25T02:28:28.000Z,64.49
2023-04-25T02:30:55.198Z,64.01
2023-04-25T02:33:22.128Z,64.18
2023-04-25T02:35:48.983Z,64.08
2023-04-25T02:38:15.766Z,64.43
2023-04-25T02:40:42.426Z,64.14
2023-04-25T02:43:09.161Z,64.54
2023-04-25T02:45:36.352Z,64.17
2023-04-25T02:48:04.181Z,63.87
2023-04-25T02:50:32.534Z,64.11
2023-04-25T02:52:59.593Z,63.62
2023-04-25T02:55:31.230Z,63.51
2023-04-25T02:57:59.754Z,63.48
2023-04-25T03:00:56.114Z,63.26
2023-04-25T03:03:23.250Z,63.05
2023-04-25T03:05:54.296Z,62.97
2023-04-25T03:08:33.379Z,62.45
2023-04-25T03:11:01.701Z,62.60
2023-04-25T03:13:30.842Z,62.76
2023-04-25T03:15:58.239Z,62.78
2023-04-25T03:18:26.081Z,62.46
2023-04-25T03:20:54.888Z,62.44
2023-04-25T03:23:21.843Z,62.21
2023-04-25T03:25:48.504Z,62.38
2023-04-25T03:28:15.609Z,61.99
2023-04-25T03:30:42.321Z,61.92
2023-04-25T03:33:10.066Z,61.42
2023-04-25T03:35:36.771Z,61.55
2023-04-25T03:38:03.531Z,61.35
2023-04-25T03:40:35.357Z,61.03
2023-04-25T03:43:15.856Z,61.66
2023-04-25T03:45:49.067Z,61.84
2023-04-25T03:48:19.038Z,61.34
2023-04-25T03:50:46.174Z,61.16
2023-04-25T03:53:12.851Z,61.24
2023-04-25T03:55:59.430Z,61.04
2023-04-25T03:58:26.043Z,61.28
2023-04-25T04:00:55.218Z,61.01
2023-04-25T04:03:22.579Z,61.63
2023-04-25T04:05:51.606Z,61.93
2023-04-25T04:08:18.337Z,61.69
2023-04-25T04:10:45.127Z,61.41
2023-04-25T04:13:12.056Z,61.58
2023-04-25T04:15:38.821Z,61.41
2023-04-25T04:18:05.672Z,61.03
2023-04-25T04:20:32.396Z,61.08
2023-04-25T04:22:59.126Z,60.88
2023-04-25T04:25:25.919Z,61.25
2023-04-25T04:28:09.343Z,60.82
2023-04-25T04:30:52.275Z,60.87
2023-04-25T04:33:22.320Z,60.82
2023-04-25T04:35:56.610Z,61.48
2023-04-25T04:38:23.301Z,61.58
2023-04-25T04:40:51.515Z,61.63
2023-04-25T04:43:25.962Z,61.64
2023-04-25T04:46:04.471Z,61.33
2023-04-25T04:48:41.014Z,61.12
2023-04-25T04:51:45.415Z,61.13
2023-04-25T04:54:29.957Z,60.86
2023-04-25T04:57:15.205Z,60.96
2023-04-25T04:59:56.947Z,61.01
2023-04-25T05:02:50.168Z,61.06
2023-04-25T05:05:35.667Z,60.88
2023-04-25T05:08:25.571Z,60.59
2023-04-25T05:11:14.998Z,60.79
2023-04-25T05:14:01.950Z,60.98
2023-04-25T05:16:58.124Z,61.14
2023-04-25T05:19:40.482Z,60.69
2023-04-25T05:22:24.024Z,60.81
2023-04-25T05:25:22.767Z,60.94
2023-04-25T05:27:49.504Z,61.20
2023-04-25T05:30:31.068Z,61.19
2023-04-25T05:33:05.116Z,60.32
2023-04-25T05:35:32.232Z,60.61
2023-04-25T05:37:58.973Z,60.04
2023-04-25T05:40:45.047Z,60.28
2023-04-25T05:43:17.108Z,60.17
2023-04-25T05:45:59.471Z,59.70
2023-04-25T05:48:26.191Z,59.63
2023-04-25T05:51:00.845Z,60.04
2023-04-25T05:53:46.880Z,60.04
2023-04-25T05:56:15.211Z,59.98
2023-04-25T05:58:42.233Z,59.66
2023-04-25T06:01:11.252Z,59.29
2023-04-25T06:03:39.555Z,59.31
2023-04-25T06:06:06.893Z,59.73
2023-04-25T06:08:33.876Z,59.95
2023-04-25T06:11:00.628Z,58.97
2023-04-25T06:13:27.352Z,59.44
2023-04-25T06:15:55.585Z,58.55
2023-04-25T06:18:22.285Z,59.22
2023-04-25T06:20:49.572Z,58.26
2023-04-25T06:23:18.125Z,58.24
2023-04-25T06:26:02.361Z,58.55
2023-04-25T06:28:30.913Z,58.30
2023-04-25T06:30:57.726Z,59.09
2023-04-25T06:33:25.370Z,58.14
2023-04-25T06:35:54.146Z,58.23
2023-04-25T06:38:24.665Z,58.40
2023-04-25T06:40:52.884Z,58.65
2023-04-25T06:43:19.920Z,57.55
2023-04-25T06:45:55.950Z,57.00
2023-04-25T06:48:23.990Z,55.39
2023-04-25T06:50:51.675Z,55.24
2023-04-25T06:53:19.696Z,54.68
2023-04-25T06:55:50.400Z,54.53
2023-04-25T06:58:19.686Z,54.16
2023-04-25T07:01:04.821Z,54.23
2023-04-25T07:03:33.382Z,54.14
2023-04-25T07:06:04.991Z,53.88
2023-04-25T07:08:31.678Z,53.74
2023-04-25T07:11:00.460Z,54.26
2023-04-25T07:13:27.670Z,54.26
2023-04-25T07:15:56.651Z,54.70
2023-04-25T07:18:24.251Z,54.60
2023-04-25T07:20:51.720Z,54.88
2023-04-25T07:23:19.683Z,54.66
2023-04-25T07:25:47.472Z,54.64
2023-04-25T07:28:19.672Z,54.06
2023-04-25T07:30:47.724Z,54.32
2023-04-25T07:33:14.465Z,55.01
2023-04-25T07:35:41.199Z,54.76
2023-04-25T07:38:08.931Z,54.09
2023-04-25T07:40:36.378Z,53.88
2023-04-25T07:43:07.204Z,53.05
2023-04-25T07:45:49.636Z,52.36
2023-04-25T07:48:20.114Z,52.19
2023-04-25T07:50:47.726Z,50.88
2023-04-25T07:53:31.579Z,50.09
2023-04-25T07:56:02.814Z,49.08
2023-04-25T07:58:33.053Z,47.92
2023-04-25T08:01:02.539Z,47.14
2023-04-25T08:03:35.741Z,46.98
2023-04-25T08:06:08.782Z,46.06
2023-04-25T08:08:43.765Z,46.27
2023-04-25T08:11:13.828Z,45.97
2023-04-25T08:13:40.869Z,45.33
2023-04-25T08:16:07.760Z,44.07
2023-04-25T08:18:35.568Z,43.70
2023-04-25T08:21:02.541Z,42.70
2023-04-25T08:23:30.567Z,41.81
2023-04-25T08:26:09.056Z,40.74
2023-04-25T08:28:38.425Z,40.17
2023-04-25T08:31:05.639Z,39.41
2023-04-25T08:33:40.685Z,39.19
2023-04-25T08:36:31.593Z,39.26
2023-04-25T08:39:05.840Z,37.92
2023-04-25T08:41:38.478Z,33.70
2023-04-25T08:44:10.810Z,33.32
2023-04-25T08:46:42.189Z,34.14
2023-04-25T08:49:30.632Z,34.75
2023-04-25T08:52:00.784Z,34.00
2023-04-25T08:54:35.424Z,35.07
2023-04-25T08:57:06.554Z,34.90
2023-04-25T08:59:33.726Z,34.99
2023-04-25T09:02:01.965Z,33.79
2023-04-25T09:04:33.805Z,31.94
2023-04-25T09:07:00.625Z,28.90
2023-04-25T09:09:28.049Z,27.27
2023-04-25T09:11:56.769Z,27.66
2023-04-25T09:14:26.877Z,29.42
2023-04-25T09:17:19.819Z,30.62
2023-04-25T09:19:53.128Z,30.12
2023-04-25T09:22:27.295Z,30.14
2023-04-25T09:24:54.063Z,30.55
2023-04-25T09:27:24.267Z,31.76
2023-04-25T09:30:01.522Z,31.98
2023-04-25T09:32:33.711Z,31.41
2023-04-25T09:35:01.009Z,30.56
2023-04-25T09:37:31.305Z,32.16
2023-04-25T09:40:08.849Z,32.88
2023-04-25T09:42:48.319Z,33.31
2023-04-25T09:45:16.668Z,33.90
2023-04-25T09:47:47.528Z,34.43
2023-04-25T09:50:20.370Z,34.41
2023-04-25T09:53:07.977Z,34.33
2023-04-25T09:55:51.957Z,34.08
2023-04-25T09:58:19.016Z,29.89
2023-04-25T10:00:45.890Z,22.95
2023-04-25T10:03:27.116Z,20.94
2023-04-25T10:06:20.850Z,20.71
2023-04-25T10:08:53.241Z,19.37
2023-04-25T10:11:20.678Z,17.75
2023-04-25T10:13:48.947Z,17.60
2023-04-25T10:16:17.413Z,17.43
2023-04-25T10:18:44.182Z,18.71
2023-04-25T10:21:11.977Z,19.23
2023-04-25T10:23:39.490Z,21.91
2023-04-25T10:26:06.572Z,23.98
2023-04-25T10:28:59.178Z,26.18
2023-04-25T10:31:26.732Z,27.91
2023-04-25T10:33:54.536Z,29.13
2023-04-25T10:36:23.663Z,29.08
2023-04-25T10:38:55.472Z,27.89
2023-04-25T10:41:24.187Z,26.44
2023-04-25T10:44:01.000Z,25.56
2023-04-25T10:46:32.181Z,26.47
2023-04-25T10:49:01.858Z,27.48
2023-04-25T10:51:54.505Z,27.93
2023-04-25T10:54:26.152Z,29.16
2023-04-25T10:56:54.766Z,29.32
2023-04-25T10:59:26.252Z,29.89
2023-04-25T11:01:56.963Z,29.70
2023-04-25T11:04:36.949Z,29.81
2023-04-25T11:07:47.961Z,30.42
2023-04-25T11:10:17.048Z,30.05
2023-04-25T11:12:43.780Z,30.22
2023-04-25T11:15:10.602Z,30.51
2023-04-25T11:17:37.371Z,31.72
2023-04-25T11:20:08.377Z,31.95
2023-04-25T11:22:35.901Z,31.56
2023-04-25T11:25:07.470Z,31.07
2023-04-25T11:27:34.318Z,30.80
2023-04-25T11:30:18.919Z,30.29
2023-04-25T11:32:46.426Z,29.94
2023-04-25T11:35:13.965Z,29.05
2023-04-25T11:37:41.568Z,28.15
2023-04-25T11:40:10.568Z,28.44
2023-04-25T11:42:45.387Z,28.46
2023-04-25T11:45:12.545Z,29.19
2023-04-25T11:47:39.799Z,29.45
2023-04-25T11:50:09.019Z,30.00
2023-04-25T11:52:43.932Z,30.28
2023-04-25T11:55:15.712Z,30.32
2023-04-25T11:57:44.060Z,30.10
2023-04-25T12:00:18.043Z,29.79
2023-04-25T12:02:47.931Z,29.90
2023-04-25T12:05:31.372Z,30.01
2023-04-25T12:08:13.563Z,29.98
2023-04-25T12:10:42.107Z,29.45
2023-04-25T12:13:21.961Z,29.62
2023-04-25T12:15:48.940Z,29.93
2023-04-25T12:18:15.760Z,30.14
2023-04-25T12:20:42.898Z,30.78
2023-04-25T12:23:09.913Z,30.53
2023-04-25T12:25:43.762Z,29.94
2023-04-25T12:28:20.727Z,29.84
2023-04-25T12:30:58.504Z,30.18
2023-04-25T12:33:45.074Z,30.80
2023-04-25T12:36:12.758Z,31.23
2023-04-25T12:38:41.345Z,31.47
2023-04-25T12:41:08.481Z,32.28
2023-04-25T12:43:35.658Z,32.99
2023-04-25T12:46:02.457Z,33.05
2023-04-25T12:48:30.851Z,33.06
2023-04-25T12:50:57.755Z,32.87
2023-04-25T12:53:27.457Z,32.22
2023-04-25T12:58:21.165Z,30.62
2023-04-25T13:00:48.821Z,30.50
2023-04-25T13:03:15.625Z,30.48
2023-04-25T13:05:43.234Z,31.23
2023-04-25T13:08:10.085Z,31.11
2023-04-25T13:10:39.277Z,31.68
2023-04-25T13:13:06.213Z,32.06
2023-04-25T13:15:33.332Z,31.77
2023-04-25T13:18:00.192Z,31.71
2023-04-25T13:20:27.097Z,31.85
2023-04-25T13:22:53.879Z,31.88
2023-04-25T13:25:20.698Z,31.80
2023-04-25T13:27:47.670Z,31.46
2023-04-25T13:30:14.850Z,31.08
2023-04-25T13:32:42.107Z,31.02
2023-04-25T13:35:11.590Z,31.15
2023-04-25T13:37:39.520Z,31.71
2023-04-25T13:40:12.330Z,32.49
2023-04-25T13:42:39.824Z,33.33
2023-04-25T13:45:07.951Z,33.07
2023-04-25T13:47:35.923Z,33.39
2023-04-25T13:50:04.222Z,33.95
2023-04-25T13:52:31.004Z,34.32
2023-04-25T13:54:57.695Z,33.70
2023-04-25T13:57:24.885Z,33.57
2023-04-25T13:59:52.032Z,33.88
2023-04-25T14:02:19.068Z,33.39
2023-04-25T14:04:46.331Z,33.55
2023-04-25T14:07:13.322Z,33.47
2023-04-25T14:09:39.908Z,33.32
2023-04-25T14:12:07.091Z,33.47
2023-04-25T14:14:33.856Z,33.28
2023-04-25T14:17:00.985Z,33.61
2023-04-25T14:19:27.883Z,33.74
2023-04-25T14:21:55.114Z,34.13
2023-04-25T14:24:21.970Z,34.27
2023-04-25T14:26:48.822Z,34.40
2023-04-25T14:29:15.497Z,34.18
2023-04-25T14:31:42.307Z,34.52
2023-04-25T14:34:09.532Z,34.85
2023-04-25T14:36:37.283Z,34.59
2023-04-25T14:39:06.447Z,34.84
2023-04-25T14:41:33.406Z,35.12
2023-04-25T14:44:00.583Z,35.38
2023-04-25T14:46:28.051Z,34.91
2023-04-25T14:48:56.909Z,35.37
2023-04-25T14:51:24.470Z,34.92
2023-04-25T14:53:52.413Z,34.52
2023-04-25T14:56:19.823Z,34.60
2023-04-25T14:58:46.711Z,34.22
2023-04-25T15:01:14.153Z,34.09
2023-04-25T15:03:41.680Z,33.41
2023-04-25T15:06:08.779Z,32.58
2023-04-25T15:08:36.180Z,32.93
2023-04-25T15:11:04.737Z,33.43
2023-04-25T15:13:32.119Z,33.10
2023-04-25T15:15:59.181Z,33.22
2023-04-25T15:18:25.884Z,33.34
2023-04-25T15:20:53.631Z,33.63
2023-04-25T15:23:22.385Z,33.90
2023-04-25T15:25:51.585Z,33.55
2023-04-25T15:28:18.289Z,33.07
2023-04-25T15:30:46.014Z,33.19
2023-04-25T15:33:12.851Z,32.70
2023-04-25T15:35:39.657Z,32.59
2023-04-25T15:38:07.653Z,32.43
2023-04-25T15:40:34.397Z,32.91
2023-04-25T15:43:01.097Z,32.91
2023-04-25T15:45:27.893Z,32.87
2023-04-25T15:47:57.367Z,32.94
2023-04-25T15:50:24.926Z,32.68
2023-04-25T15:52:52.417Z,32.37
2023-04-25T15:55:21.719Z,32.16
2023-04-25T15:57:49.731Z,32.05
2023-04-25T16:00:21.190Z,32.84
2023-04-25T16:02:48.557Z,32.51
2023-04-25T16:05:15.654Z,32.77
2023-04-25T16:07:44.235Z,32.53
2023-04-25T16:10:12.117Z,32.52
2023-04-25T16:12:40.509Z,32.90
2023-04-25T16:15:08.346Z,33.01
2023-04-25T16:17:35.350Z,33.11
2023-04-25T16:20:09.550Z,33.25
2023-04-25T16:22:38.086Z,33.31
2023-04-25T16:25:05.780Z,33.95
2023-04-25T16:27:34.628Z,34.60
2023-04-25T16:30:02.612Z,33.99
2023-04-25T16:32:29.552Z,34.19
2023-04-25T16:34:58.270Z,33.61
2023-04-25T16:37:25.900Z,33.65
2023-04-25T16:39:52.629Z,34.03
2023-04-25T16:42:19.470Z,33.63
2023-04-25T16:44:46.217Z,32.95
2023-04-25T16:47:15.725Z,32.81
2023-04-25T16:49:44.782Z,33.44
2023-04-25T16:52:12.738Z,33.29
2023-04-25T16:54:39.447Z,33.60
2023-04-25T16:57:07.260Z,33.81
2023-04-25T16:59:33.980Z,34.25
2023-04-25T17:02:02.469Z,34.04
2023-04-25T17:04:29.343Z,34.27
2023-04-25T17:06:56.188Z,34.18
2023-04-25T17:09:22.978Z,34.20
2023-04-25T17:11:49.691Z,34.53
2023-04-25T17:14:16.322Z,34.78
2023-04-25T17:16:43.041Z,34.98
2023-04-25T17:19:09.800Z,34.96
2023-04-25T17:21:36.638Z,35.20
2023-04-25T17:24:06.058Z,34.71
2023-04-25T17:26:32.877Z,34.63
2023-04-25T17:28:59.647Z,34.08
2023-04-25T17:31:26.960Z,34.10
2023-04-25T17:33:53.698Z,34.50
2023-04-25T17:36:21.432Z,34.42
2023-04-25T17:38:48.206Z,34.48
2023-04-25T17:41:15.248Z,34.89
2023-04-25T17:43:42.073Z,34.39
2023-04-25T17:46:08.984Z,34.69
2023-04-25T17:48:35.833Z,34.45
2023-04-25T17:51:02.801Z,34.86
2023-04-25T17:53:29.448Z,35.20
2023-04-25T17:55:56.387Z,35.31
2023-04-25T17:58:23.342Z,34.92
2023-04-25T18:00:50.134Z,34.39
2023-04-25T18:03:17.352Z,34.85
2023-04-25T18:05:46.501Z,35.04
2023-04-25T18:08:13.619Z,34.99
2023-04-25T18:10:40.529Z,34.81
2023-04-25T18:13:09.146Z,35.66
2023-04-25T18:15:35.946Z,35.95
2023-04-25T18:18:09.591Z,35.80
2023-04-25T18:20:36.543Z,35.44
2023-04-25T18:23:03.312Z,35.73
2023-04-25T18:25:30.408Z,35.29
2023-04-25T18:27:57.517Z,35.06
2023-04-25T18:30:24.274Z,35.13
2023-04-25T18:32:51.333Z,34.78
2023-04-25T18:35:18.296Z,34.39
2023-04-25T18:37:45.099Z,34.17
2023-04-25T18:40:14.408Z,33.95
2023-04-25T18:42:41.529Z,33.62
2023-04-25T18:45:09.233Z,33.96
2023-04-25T18:47:36.095Z,33.93
2023-04-25T18:50:04.768Z,33.89
2023-04-25T18:52:31.678Z,35.20
2023-04-25T18:54:58.583Z,34.68
2023-04-25T18:57:25.407Z,34.20
2023-04-25T18:59:53.876Z,34.24
2023-04-25T19:02:20.693Z,34.77
2023-04-25T19:04:47.556Z,34.92
2023-04-25T19:07:14.976Z,35.12
2023-04-25T19:09:41.741Z,34.69
2023-04-25T19:12:08.698Z,35.25
2023-04-25T19:14:36.256Z,35.05
2023-04-25T19:17:03.168Z,35.49
2023-04-25T19:19:30.136Z,35.58
2023-04-25T19:21:58.819Z,35.24
2023-04-25T19:24:27.134Z,35.79
2023-04-25T19:26:54.051Z,35.94
2023-04-25T19:29:21.412Z,36.00
2023-04-25T19:31:48.221Z,35.85
2023-04-25T19:34:16.221Z,36.68
2023-04-25T19:36:44.182Z,36.28
2023-04-25T19:39:11.163Z,37.26
2023-04-25T19:41:38.906Z,36.97
2023-04-25T19:44:07.661Z,36.99
2023-04-25T19:46:36.887Z,37.19
2023-04-25T19:49:07.368Z,37.55
2023-04-25T19:51:35.063Z,37.53
2023-04-25T19:54:01.770Z,37.89
2023-04-25T19:56:29.684Z,37.81
2023-04-25T19:58:58.372Z,37.79
2023-04-25T20:01:25.691Z,37.30
2023-04-25T20:03:52.867Z,37.36
2023-04-25T20:06:19.982Z,37.46
2023-04-25T20:08:47.392Z,37.45
2023-04-25T20:11:15.012Z,37.73
2023-04-25T20:13:41.948Z,37.42
2023-04-25T20:16:08.739Z,37.34
2023-04-25T20:18:35.420Z,37.92
2023-04-25T20:21:05.672Z,38.08
2023-04-25T20:23:32.377Z,37.62
2023-04-25T20:25:59.123Z,37.91
2023-04-25T20:28:27.388Z,38.26
2023-04-25T20:30:54.191Z,38.16
2023-04-25T20:33:22.063Z,38.11
2023-04-25T20:35:49.281Z,38.06
2023-04-25T20:38:16.423Z,37.47
2023-04-25T20:40:44.032Z,37.33
2023-04-25T20:43:12.062Z,37.40
2023-04-25T20:45:39.683Z,38.20
2023-04-25T20:48:06.439Z,38.09
2023-04-25T20:50:33.561Z,37.29
2023-04-25T20:53:00.253Z,37.82
2023-04-25T20:55:30.153Z,37.67
2023-04-25T20:57:57.680Z,37.99
2023-04-25T21:00:29.127Z,37.51
2023-04-25T21:02:57.009Z,37.97
2023-04-25T21:05:24.663Z,38.10
2023-04-25T21:07:54.895Z,37.79
2023-04-25T21:10:22.019Z,38.03
2023-04-25T21:12:49.684Z,38.33
2023-04-25T21:15:21.321Z,38.02
2023-04-25T21:17:49.659Z,38.02
2023-04-25T21:20:18.159Z,38.13
2023-04-25T21:22:53.490Z,38.67
2023-04-25T21:25:29.147Z,38.68
2023-04-25T21:27:56.323Z,38.96
2023-04-25T21:30:24.871Z,38.95
2023-04-25T21:32:52.851Z,39.04
2023-04-25T21:35:20.887Z,39.08
2023-04-25T21:37:48.468Z,39.38
2023-04-25T21:40:15.715Z,39.92
2023-04-25T21:42:44.506Z,39.96
2023-04-25T21:45:11.916Z,39.96
2023-04-25T21:47:39.189Z,40.00
2023-04-25T21:50:06.417Z,40.47
2023-04-25T21:52:33.377Z,40.83
2023-04-25T21:55:00.359Z,40.56
2023-04-25T21:57:27.418Z,41.01
2023-04-25T21:59:54.141Z,41.50
2023-04-25T22:02:20.959Z,42.00
2023-04-25T22:04:48.411Z,41.47
2023-04-25T22:07:15.850Z,41.72
2023-04-25T22:09:53.853Z,41.54
2023-04-25T22:12:22.622Z,42.15
2023-04-25T22:14:49.365Z,41.91
2023-04-25T22:17:16.113Z,42.16
2023-04-25T22:19:43.254Z,42.03
2023-04-25T22:22:10.116Z,42.35
2023-04-25T22:24:37.153Z,42.42
2023-04-25T22:27:03.913Z,42.51
2023-04-25T22:29:32.629Z,42.99
2023-04-25T22:31:59.453Z,42.21
2023-04-25T22:34:26.453Z,42.57
2023-04-25T22:36:53.173Z,41.93
2023-04-25T22:39:19.948Z,42.06
2023-04-25T22:41:48.234Z,41.86
2023-04-25T22:44:15.748Z,42.02
2023-04-25T22:46:43.307Z,41.35
2023-04-25T22:49:10.094Z,41.60
2023-04-25T22:51:37.051Z,41.61
2023-04-25T22:54:05.401Z,41.78
2023-04-25T22:56:32.961Z,41.58
2023-04-25T22:58:59.854Z,41.65
2023-04-25T23:01:28.017Z,41.89
2023-04-25T23:03:55.182Z,42.07
2023-04-25T23:06:22.114Z,42.12
2023-04-25T23:08:48.998Z,41.56
2023-04-25T23:11:15.724Z,41.94
2023-04-25T23:13:44.117Z,41.83
2023-04-25T23:16:11.284Z,42.38
2023-04-25T23:18:39.463Z,41.64
2023-04-25T23:21:11.388Z,42.23
2023-04-25T23:23:38.829Z,42.19
2023-04-25T23:26:09.739Z,42.59
2023-04-25T23:28:39.872Z,42.70
2023-04-25T23:31:09.988Z,42.60
2023-04-25T23:33:38.138Z,42.63
2023-04-25T23:36:05.526Z,43.11
2023-04-25T23:38:34.766Z,42.81
2023-04-25T23:41:01.780Z,43.12
2023-04-25T23:43:28.473Z,43.33
2023-04-25T23:45:55.884Z,43.92
2023-04-25T23:48:22.964Z,43.55
2023-04-25T23:50:49.685Z,43.69
2023-04-25T23:53:16.435Z,44.04
2023-04-25T23:55:43.151Z,44.47
2023-04-25T23:58:10.098Z,44.30
